Time;durP1;ratioP1;P1;durP2;ratioP2;P2;SDS_P1;SDS_P2;PMS_P1;PMS_P2;Temp;Humidity;BMP_temperature;BMP_pressure;BME280_temperature;BME280_humidity;BME280_pressure;Samples;Min_cycle;Max_cycle;Signal;HPM_P1;HPM_P2
2023/09/22 00:00:10;;;;;;;15.05;11.35;;;;;;;-145.50;100.00;65435.88;5051388;28;20052;-72
2023/09/22 00:02:37;;;;;;;14.27;10.70;;;;;;;-145.50;100.00;65435.88;5053674;28;20057;-72
2023/09/22 00:05:06;;;;;;;13.70;10.30;;;;;;;-145.50;100.00;65435.88;5048784;28;20052;-72
2023/09/22 00:07:33;;;;;;;;;;;;;;;-145.50;100.00;65435.88;5044564;28;20261;-72
2023/09/22 00:09:59;;;;;;;16.15;11.20;;;;;;;-145.50;100.00;65435.88;5049753;28;20018;-71
2023/09/22 00:12:28;;;;;;;16.77;11.63;;;;;;;-145.50;100.00;65435.88;5050972;28;20067;-72
2023/09/22 00:14:57;;;;;;;14.52;11.98;;;;;;;-145.50;100.00;65435.88;5040552;28;20068;-72
2023/09/22 00:17:24;;;;;;;16.45;12.90;;;;;;;-145.50;100.00;65435.88;5052544;28;20644;-71
2023/09/22 00:19:51;;;;;;;18.17;12.55;;;;;;;-145.50;100.00;65435.88;5049797;28;20045;-72
2023/09/22 00:22:17;;;;;;;18.40;12.20;;;;;;;-145.50;100.00;65435.88;5049872;28;20067;-71
2023/09/22 00:24:44;;;;;;;16.70;13.00;;;;;;;-145.50;100.00;65435.88;5046766;28;20048;-72
2023/09/22 00:27:11;;;;;;;16.58;13.02;;;;;;;-145.50;100.00;65435.88;5038461;28;20589;-72
2023/09/22 00:29:37;;;;;;;18.08;13.43;;;;;;;-145.50;100.00;65435.88;5059317;28;20106;-71
2023/09/22 00:32:04;;;;;;;18.00;13.65;;;;;;;-145.50;100.00;65435.88;5040162;28;20118;-72
2023/09/22 00:34:33;;;;;;;18.23;14.43;;;;;;;-145.50;100.00;65435.88;5055506;28;20079;-71
2023/09/22 00:36:59;;;;;;;21.95;15.68;;;;;;;-145.50;100.00;65435.88;5062647;28;20052;-71
2023/09/22 00:39:26;;;;;;;21.80;16.67;;;;;;;-145.50;100.00;65435.88;5034699;28;20059;-72
2023/09/22 00:41:56;;;;;;;22.23;16.67;;;;;;;-145.50;100.00;65435.88;5049663;28;20059;-71
2023/09/22 00:44:23;;;;;;;22.15;16.27;;;;;;;-145.50;100.00;65435.88;5052540;28;20055;-71
2023/09/22 00:46:49;;;;;;;21.02;15.35;;;;;;;-145.50;100.00;65435.88;5060783;28;20817;-72
2023/09/22 00:49:17;;;;;;;23.13;17.05;;;;;;;-145.50;100.00;65435.88;5058912;28;20506;-72
2023/09/22 00:51:44;;;;;;;23.37;16.43;;;;;;;-145.50;100.00;65435.88;5044191;28;20495;-71
2023/09/22 00:54:11;;;;;;;22.20;16.92;;;;;;;-145.50;100.00;65435.88;5050982;28;20421;-71
2023/09/22 00:56:38;;;;;;;21.67;16.30;;;;;;;-145.50;100.00;65435.88;5031424;28;20153;-71
2023/09/22 00:59:07;;;;;;;24.08;16.80;;;;;;;-145.50;100.00;65435.88;5061903;28;20431;-71
2023/09/22 01:01:34;;;;;;;26.15;17.40;;;;;;;-145.50;100.00;65435.88;5040165;28;20061;-71
2023/09/22 01:04:01;;;;;;;26.17;18.50;;;;;;;-145.50;100.00;65435.88;5047516;28;20048;-71
2023/09/22 01:06:29;;;;;;;26.90;19.10;;;;;;;-145.50;100.00;65435.88;5041876;28;20088;-71
2023/09/22 01:08:56;;;;;;;36.35;19.00;;;;;;;-145.50;100.00;65435.88;5044849;28;20131;-71
2023/09/22 01:11:22;;;;;;;28.77;19.77;;;;;;;-145.50;100.00;65435.88;5051353;28;20049;-71
2023/09/22 01:13:49;;;;;;;27.60;19.23;;;;;;;-145.50;100.00;65435.88;5048583;28;20066;-71
2023/09/22 01:16:16;;;;;;;27.65;18.15;;;;;;;-145.50;100.00;65435.88;5042099;28;20053;-72
2023/09/22 01:18:43;;;;;;;25.73;16.02;;;;;;;-145.50;100.00;65435.88;5050326;28;20088;-71
2023/09/22 01:21:12;;;;;;;24.93;16.30;;;;;;;-145.50;100.00;65435.88;5054835;28;20080;-72
2023/09/22 01:23:39;;;;;;;24.52;16.33;;;;;;;-145.50;100.00;65435.88;5046756;28;20305;-72
2023/09/22 01:26:06;;;;;;;25.90;18.35;;;;;;;-145.50;100.00;65435.88;5043444;28;20183;-71
2023/09/22 01:28:32;;;;;;;24.98;16.67;;;;;;;-145.50;100.00;65435.88;5051245;28;20091;-71
2023/09/22 01:30:59;;;;;;;22.70;15.93;;;;;;;-145.50;100.00;65435.88;5049974;28;20094;-71
2023/09/22 01:33:26;;;;;;;24.33;16.02;;;;;;;-145.50;100.00;65435.88;5056814;28;20358;-71
2023/09/22 01:35:53;;;;;;;24.98;17.58;;;;;;;-145.50;100.00;65435.88;5041514;28;20052;-71
2023/09/22 01:38:23;;;;;;;24.23;15.70;;;;;;;-145.50;100.00;65435.88;5059890;28;20052;-72
2023/09/22 01:40:51;;;;;;;26.63;16.63;;;;;;;-145.50;100.00;65435.88;5054108;28;20059;-71
2023/09/22 01:43:18;;;;;;;23.17;14.20;;;;;;;-145.50;100.00;65435.88;5035390;28;20060;-71
2023/09/22 01:45:44;;;;;;;21.25;14.40;;;;;;;-145.50;100.00;65435.88;5061188;28;20053;-71
2023/09/22 01:48:11;;;;;;;17.90;12.48;;;;;;;-145.50;100.00;65435.88;5049897;28;20501;-71
2023/09/22 01:50:40;;;;;;;23.92;14.07;;;;;;;-145.50;100.00;65435.88;5055033;28;20052;-72
2023/09/22 01:53:09;;;;;;;18.00;12.30;;;;;;;-145.50;100.00;65435.88;5058289;28;20624;-71
2023/09/22 01:55:37;;;;;;;17.35;11.80;;;;;;;-145.50;100.00;65435.88;5053935;28;20060;-70
2023/09/22 01:58:07;;;;;;;19.33;13.00;;;;;;;-145.50;100.00;65435.88;5047605;28;20114;-71
2023/09/22 02:00:37;;;;;;;18.67;11.18;;;;;;;-145.50;100.00;65435.88;5050769;28;20083;-71
2023/09/22 02:03:08;;;;;;;19.60;11.38;;;;;;;-145.50;100.00;65435.88;5040842;28;20290;-71
2023/09/22 02:05:35;;;;;;;19.58;10.57;;;;;;;-145.50;100.00;65435.88;5049047;28;20059;-71
2023/09/22 02:08:02;;;;;;;16.83;10.77;;;;;;;-145.50;100.00;65435.88;5057445;28;20056;-71
2023/09/22 02:10:28;;;;;;;15.95;10.52;;;;;;;-145.50;100.00;65435.88;5057309;28;20330;-71
2023/09/22 02:12:55;;;;;;;17.63;9.90;;;;;;;-145.50;100.00;65435.88;5046488;28;20480;-71
2023/09/22 02:15:22;;;;;;;13.57;9.48;;;;;;;-145.50;100.00;65435.88;5057514;28;20052;-70
2023/09/22 02:17:48;;;;;;;14.93;8.77;;;;;;;-145.50;100.00;65435.88;5045583;28;20149;-72
2023/09/22 02:20:18;;;;;;;16.95;10.20;;;;;;;-145.50;100.00;65435.88;5051464;28;20420;-71
2023/09/22 02:22:46;;;;;;;15.40;9.00;;;;;;;-145.50;100.00;65435.88;5052969;28;20498;-72
2023/09/22 02:25:13;;;;;;;;;;;;;;;-145.50;100.00;65435.88;5045845;28;20200;-71
2023/09/22 02:27:40;;;;;;;15.98;9.50;;;;;;;-145.50;100.00;65435.88;5050249;28;20026;-72
2023/09/22 02:30:08;;;;;;;16.05;9.60;;;;;;;-145.50;100.00;65435.88;5054856;28;20456;-71
2023/09/22 02:32:35;;;;;;;13.80;9.15;;;;;;;-145.50;100.00;65435.88;5048143;28;20045;-71
2023/09/22 02:35:01;;;;;;;13.85;9.48;;;;;;;-145.50;100.00;65435.88;5057354;28;20056;-71
2023/09/22 02:37:29;;;;;;;16.10;9.30;;;;;;;-145.50;100.00;65435.88;5064851;28;20053;-71
2023/09/22 02:39:56;;;;;;;13.20;9.18;;;;;;;-145.50;100.00;65435.88;5051084;28;20536;-71
2023/09/22 02:42:23;;;;;;;12.15;8.07;;;;;;;-145.50;100.00;65435.88;5054121;28;20468;-72
2023/09/22 02:44:50;;;;;;;14.30;8.70;;;;;;;-145.50;100.00;65435.88;5035357;28;20423;-72
2023/09/22 02:47:16;;;;;;;13.73;8.43;;;;;;;-145.50;100.00;65435.88;5052736;28;20045;-71
2023/09/22 02:49:43;;;;;;;14.77;8.70;;;;;;;-145.50;100.00;65435.88;5058667;28;20143;-71
2023/09/22 02:52:10;;;;;;;12.23;8.13;;;;;;;-145.50;100.00;65435.88;5054647;28;20060;-71
2023/09/22 02:54:37;;;;;;;13.40;7.97;;;;;;;-145.50;100.00;65435.88;5060662;28;20053;-72
2023/09/22 02:57:04;;;;;;;10.98;7.45;;;;;;;-145.50;100.00;65435.88;5050814;28;20052;-71
2023/09/22 02:59:31;;;;;;;11.68;7.75;;;;;;;-145.50;100.00;65435.88;5054123;28;20088;-70
2023/09/22 03:01:57;;;;;;;10.45;6.18;;;;;;;-145.50;100.00;65435.88;5055464;28;20141;-70
2023/09/22 03:04:24;;;;;;;13.65;8.30;;;;;;;-145.50;100.00;65435.88;5062394;28;20164;-71
2023/09/22 03:06:50;;;;;;;12.73;6.57;;;;;;;-145.50;100.00;65435.88;5057111;28;20576;-70
2023/09/22 03:09:17;;;;;;;11.07;6.93;;;;;;;-145.50;100.00;65435.88;5056330;28;20152;-71
2023/09/22 03:11:43;;;;;;;13.23;7.43;;;;;;;-145.50;100.00;65435.88;5046469;28;20122;-70
2023/09/22 03:14:10;;;;;;;11.88;7.20;;;;;;;-145.50;100.00;65435.88;5050664;28;20087;-71
2023/09/22 03:16:37;;;;;;;15.20;7.82;;;;;;;-145.50;100.00;65435.88;5060639;28;20080;-71
2023/09/22 03:19:04;;;;;;;14.55;7.60;;;;;;;-145.50;100.00;65435.88;5054734;28;20505;-70
2023/09/22 03:21:30;;;;;;;14.13;6.85;;;;;;;-145.50;100.00;65435.88;5041041;28;20072;-70
2023/09/22 03:23:57;;;;;;;13.43;7.25;;;;;;;-145.50;100.00;65435.88;5050451;28;20041;-71
2023/09/22 03:26:24;;;;;;;14.32;8.05;;;;;;;-145.50;100.00;65435.88;5041345;28;20075;-72
2023/09/22 03:28:50;;;;;;;12.05;7.57;;;;;;;-145.50;100.00;65435.88;5044035;28;20071;-71
2023/09/22 03:31:17;;;;;;;20.25;9.05;;;;;;;-145.50;100.00;65435.88;5048549;28;20432;-71
2023/09/22 03:33:46;;;;;;;12.77;7.68;;;;;;;-145.50;100.00;65435.88;5059810;28;20091;-71
2023/09/22 03:36:13;;;;;;;11.35;7.00;;;;;;;-145.50;100.00;65435.88;5047069;28;20344;-71
2023/09/22 03:38:41;;;;;;;14.50;8.27;;;;;;;-145.50;100.00;65435.88;5039989;28;20053;-71
2023/09/22 03:41:08;;;;;;;15.07;8.77;;;;;;;-145.50;100.00;65435.88;5050666;28;20478;-71
2023/09/22 03:43:35;;;;;;;15.20;6.75;;;;;;;-145.50;100.00;65435.88;5053863;28;20110;-71
2023/09/22 03:46:01;;;;;;;16.30;8.07;;;;;;;-145.50;100.00;65435.88;5060961;28;20048;-71
2023/09/22 03:48:28;;;;;;;19.02;8.30;;;;;;;-145.50;100.00;65435.88;5043761;28;20083;-71
2023/09/22 03:50:55;;;;;;;12.85;8.18;;;;;;;-145.50;100.00;65435.88;5058237;28;20055;-70
2023/09/22 03:53:22;;;;;;;12.93;7.32;;;;;;;-145.50;100.00;65435.88;5057729;28;20329;-71
2023/09/22 03:55:49;;;;;;;11.93;7.63;;;;;;;-145.50;100.00;65435.88;5046553;28;20452;-71
2023/09/22 03:58:17;;;;;;;16.27;7.05;;;;;;;-145.50;100.00;65435.88;5069961;28;20056;-71
2023/09/22 04:00:43;;;;;;;17.53;8.53;;;;;;;-145.50;100.00;65435.88;5082053;28;20048;-71
2023/09/22 04:03:11;;;;;;;15.88;8.43;;;;;;;-145.50;100.00;65435.88;5082858;28;20316;-71
2023/09/22 04:05:38;;;;;;;13.45;7.57;;;;;;;-145.50;100.00;65435.88;5078707;28;20037;-71
2023/09/22 04:08:05;;;;;;;13.55;7.63;;;;;;;-145.50;100.00;65435.88;5067101;28;20059;-73
2023/09/22 04:10:35;;;;;;;15.55;8.20;;;;;;;-145.50;100.00;65435.88;5065691;28;20044;-73
2023/09/22 04:13:02;;;;;;;12.80;7.63;;;;;;;-145.50;100.00;65435.88;5062749;28;20463;-72
2023/09/22 04:15:28;;;;;;;14.38;8.30;;;;;;;-145.50;100.00;65435.88;5056810;28;20133;-72
2023/09/22 04:17:55;;;;;;;16.83;8.20;;;;;;;-145.50;100.00;65435.88;5043407;28;20058;-72
2023/09/22 04:20:29;;;;;;;13.75;7.63;;;;;;;-145.50;100.00;65435.88;5049796;28;20052;-72
2023/09/22 04:22:59;;;;;;;11.75;7.53;;;;;;;-145.50;100.00;65435.88;5046028;28;20308;-70
2023/09/22 04:25:34;;;;;;;14.20;7.28;;;;;;;-145.50;100.00;65435.88;5044616;28;20060;-72
2023/09/22 04:28:17;;;;;;;13.82;8.10;;;;;;;-145.50;100.00;65435.88;5052296;28;20048;-73
2023/09/22 04:30:44;;;;;;;14.75;8.00;;;;;;;-145.50;100.00;65435.88;5053874;28;20110;-72
2023/09/22 04:33:11;;;;;;;14.73;7.85;;;;;;;-145.50;100.00;65435.88;5050198;28;20474;-72
2023/09/22 04:35:39;;;;;;;11.73;7.05;;;;;;;-145.50;100.00;65435.88;5040630;28;20150;-72
2023/09/22 04:38:05;;;;;;;11.80;7.22;;;;;;;-145.50;100.00;65435.88;5049087;28;20171;-72
2023/09/22 04:40:36;;;;;;;13.95;7.03;;;;;;;-145.50;100.00;65435.88;5040487;28;20059;-72
2023/09/22 04:43:07;;;;;;;12.45;7.28;;;;;;;-145.50;100.00;65435.88;5061627;28;20619;-72
2023/09/22 04:45:43;;;;;;;12.40;6.80;;;;;;;-145.50;100.00;65435.88;5043754;28;20135;-72
2023/09/22 04:48:10;;;;;;;12.70;6.82;;;;;;;-145.50;100.00;65435.88;5044209;28;20543;-72
2023/09/22 04:50:38;;;;;;;10.25;5.97;;;;;;;-145.50;100.00;65435.88;5051786;28;20052;-70
2023/09/22 04:53:05;;;;;;;10.07;5.43;;;;;;;-145.50;100.00;65435.88;5049835;28;20403;-72
2023/09/22 04:55:35;;;;;;;11.90;6.10;;;;;;;-145.50;100.00;65435.88;5056396;28;20464;-72
2023/09/22 04:58:07;;;;;;;13.73;6.00;;;;;;;-145.50;100.00;65435.88;5054859;28;20485;-72
2023/09/22 05:00:34;;;;;;;10.13;6.13;;;;;;;-145.50;100.00;65435.88;5063234;28;20052;-72
2023/09/22 05:03:05;;;;;;;10.48;6.20;;;;;;;-145.50;100.00;65435.88;5055294;28;20497;-72
2023/09/22 05:05:32;;;;;;;10.00;5.30;;;;;;;-145.50;100.00;65435.88;5057359;28;20109;-72
2023/09/22 05:07:59;;;;;;;12.90;5.68;;;;;;;-145.50;100.00;65435.88;5060321;28;20504;-72
2023/09/22 05:10:27;;;;;;;9.95;5.47;;;;;;;-145.50;100.00;65435.88;5053915;28;20048;-72
2023/09/22 05:12:54;;;;;;;9.05;5.18;;;;;;;-145.50;100.00;65435.88;5058971;28;20544;-72
2023/09/22 05:15:21;;;;;;;8.43;4.65;;;;;;;-145.50;100.00;65435.88;5041942;28;20048;-72
2023/09/22 05:17:47;;;;;;;10.65;5.05;;;;;;;-145.50;100.00;65435.88;5051469;28;20048;-72
2023/09/22 05:20:14;;;;;;;9.57;4.90;;;;;;;-145.50;100.00;65435.88;5052422;28;20182;-74
2023/09/22 05:22:41;;;;;;;8.95;4.80;;;;;;;-145.50;100.00;65435.88;5061391;28;20126;-73
2023/09/22 05:25:08;;;;;;;13.07;4.90;;;;;;;-145.50;100.00;65435.88;5061476;28;20078;-74
2023/09/22 05:27:35;;;;;;;11.00;5.75;;;;;;;-145.50;100.00;65435.88;5044168;28;20053;-74
2023/09/22 05:30:11;;;;;;;9.98;5.18;;;;;;;-145.50;100.00;65435.88;5062030;28;20052;-73
2023/09/22 05:32:37;;;;;;;9.77;4.68;;;;;;;-145.50;100.00;65435.88;5049789;28;20053;-74
2023/09/22 05:35:04;;;;;;;7.28;4.90;;;;;;;-145.50;100.00;65435.88;5058526;28;20045;-74
2023/09/22 05:37:31;;;;;;;10.05;4.30;;;;;;;-145.50;100.00;65435.88;5043114;28;20060;-73
2023/09/22 05:39:58;;;;;;;7.88;4.70;;;;;;;-145.50;100.00;65435.88;5062630;28;20044;-73
2023/09/22 05:42:24;;;;;;;14.57;5.32;;;;;;;-145.50;100.00;65435.88;5059244;28;20063;-73
2023/09/22 05:44:51;;;;;;;10.38;5.35;;;;;;;-145.50;100.00;65435.88;5052957;28;20060;-72
2023/09/22 05:47:18;;;;;;;9.20;4.63;;;;;;;-145.50;100.00;65435.88;5053793;28;20052;-72
2023/09/22 05:49:45;;;;;;;9.23;4.57;;;;;;;-145.50;100.00;65435.88;5061020;28;20052;-72
2023/09/22 05:52:12;;;;;;;12.95;5.32;;;;;;;-145.50;100.00;65435.88;5051522;28;20053;-72
2023/09/22 05:54:38;;;;;;;7.65;4.75;;;;;;;-145.50;100.00;65435.88;5035040;28;20068;-72
2023/09/22 05:57:06;;;;;;;13.02;4.97;;;;;;;-145.50;100.00;65435.88;5040882;28;20385;-72
2023/09/22 05:59:33;;;;;;;8.15;4.13;;;;;;;-145.50;100.00;65435.88;5046208;28;20484;-72
2023/09/22 06:02:00;;;;;;;8.73;4.35;;;;;;;-145.50;100.00;65435.88;5051093;28;20052;-73
2023/09/22 06:04:29;;;;;;;7.75;4.10;;;;;;;-145.50;100.00;65435.88;5061243;28;20040;-72
2023/09/22 06:06:56;;;;;;;9.18;4.15;;;;;;;-145.50;100.00;65435.88;5058224;28;20052;-72
2023/09/22 06:09:23;;;;;;;6.75;4.13;;;;;;;-145.50;100.00;65435.88;5047090;28;20694;-72
2023/09/22 06:11:49;;;;;;;10.90;4.30;;;;;;;-145.50;100.00;65435.88;5052846;28;20196;-73
2023/09/22 06:14:16;;;;;;;10.50;4.82;;;;;;;-145.50;100.00;65435.88;5059369;28;20044;-72
2023/09/22 06:16:43;;;;;;;7.35;3.88;;;;;;;-145.50;100.00;65435.88;5058608;28;20483;-71
2023/09/22 06:19:10;;;;;;;6.20;4.07;;;;;;;-145.50;100.00;65435.88;5038665;28;20053;-73
2023/09/22 06:21:40;;;;;;;8.40;3.78;;;;;;;-145.50;100.00;65435.88;5060197;28;20087;-72
2023/09/22 06:24:07;;;;;;;6.93;3.60;;;;;;;-145.50;100.00;65435.88;5046679;28;20056;-72
2023/09/22 06:26:34;;;;;;;9.23;4.13;;;;;;;-145.50;100.00;65435.88;5045884;28;20052;-71
2023/09/22 06:29:00;;;;;;;7.45;3.45;;;;;;;-145.50;100.00;65435.88;5052472;28;20102;-73
2023/09/22 06:31:27;;;;;;;7.35;3.90;;;;;;;-145.50;100.00;65435.88;5058269;28;20135;-72
2023/09/22 06:33:54;;;;;;;7.35;3.58;;;;;;;-145.50;100.00;65435.88;5061016;28;20049;-72
2023/09/22 06:36:22;;;;;;;9.57;3.92;;;;;;;-145.50;100.00;65435.88;5049208;28;20155;-71
2023/09/22 06:38:50;;;;;;;7.78;3.45;;;;;;;-145.50;100.00;65435.88;5052348;28;20080;-72
2023/09/22 06:41:18;;;;;;;7.25;3.35;;;;;;;-145.50;100.00;65435.88;5053852;28;20123;-72
2023/09/22 06:43:46;;;;;;;8.10;3.33;;;;;;;-145.50;100.00;65435.88;5066093;28;20387;-72
2023/09/22 06:46:23;;;;;;;11.48;3.95;;;;;;;-145.50;100.00;65435.88;5052415;28;20135;-72
2023/09/22 06:48:50;;;;;;;5.93;2.90;;;;;;;-145.50;100.00;65435.88;5058231;28;20176;-71
2023/09/22 06:51:18;;;;;;;6.82;3.20;;;;;;;-145.50;100.00;65435.88;5045767;28;20146;-72
2023/09/22 06:53:47;;;;;;;7.53;3.00;;;;;;;-145.50;100.00;65435.88;5046776;28;20060;-72
2023/09/22 06:56:13;;;;;;;4.53;2.67;;;;;;;-145.50;100.00;65435.88;5057051;28;20448;-71
2023/09/22 06:58:40;;;;;;;7.50;2.72;;;;;;;-145.50;100.00;65435.88;5050502;28;20056;-72
2023/09/22 07:01:12;;;;;;;5.88;2.83;;;;;;;-145.50;100.00;65435.88;5061974;28;20055;-71
2023/09/22 07:03:40;;;;;;;4.85;2.40;;;;;;;-145.50;100.00;65435.88;5048589;28;20429;-71
2023/09/22 07:06:09;;;;;;;7.32;2.78;;;;;;;-145.50;100.00;65435.88;5041613;28;20076;-72
2023/09/22 07:08:38;;;;;;;6.10;2.85;;;;;;;-145.50;100.00;65435.88;5062064;28;20509;-72
2023/09/22 07:11:08;;;;;;;7.38;2.85;;;;;;;-145.50;100.00;65435.88;5053260;28;20055;-72
2023/09/22 07:13:40;;;;;;;6.63;2.50;;;;;;;-145.50;100.00;65435.88;5057675;28;20227;-70
2023/09/22 07:16:08;;;;;;;6.30;2.47;;;;;;;-145.50;100.00;65435.88;5046002;28;20056;-71
2023/09/22 07:18:35;;;;;;;9.52;2.72;;;;;;;-145.50;100.00;65435.88;5060919;28;20048;-71
2023/09/22 07:21:02;;;;;;;7.22;2.38;;;;;;;-145.50;100.00;65435.88;5055407;28;20053;-71
2023/09/22 07:23:31;;;;;;;6.78;2.47;;;;;;;-145.50;100.00;65435.88;5063795;28;20090;-71
2023/09/22 07:25:58;;;;;;;4.47;2.60;;;;;;;-145.50;100.00;65435.88;5041136;28;20052;-71
2023/09/22 07:28:26;;;;;;;5.43;2.60;;;;;;;-145.50;100.00;65435.88;5045949;28;20056;-71
2023/09/22 07:30:52;;;;;;;7.00;2.00;;;;;;;-145.50;100.00;65435.88;5040501;28;20692;-72
2023/09/22 07:33:20;;;;;;;6.85;2.60;;;;;;;-145.50;100.00;65435.88;5040555;28;20063;-72
2023/09/22 07:35:49;;;;;;;3.30;2.08;;;;;;;-145.50;100.00;65435.88;5049447;28;20072;-71
2023/09/22 07:38:17;;;;;;;5.47;1.98;;;;;;;-145.50;100.00;65435.88;5046954;28;20052;-71
2023/09/22 07:40:44;;;;;;;;;;;;;;;-145.50;100.00;65435.88;5044043;28;20053;-71
2023/09/22 07:43:11;;;;;;;7.68;2.20;;;;;;;-145.50;100.00;65435.88;5045793;28;19963;-71
2023/09/22 07:45:39;;;;;;;3.45;1.90;;;;;;;-145.50;100.00;65435.88;5039905;28;20414;-71
2023/09/22 07:48:06;;;;;;;3.70;1.83;;;;;;;-145.50;100.00;65435.88;5045378;28;20541;-72
2023/09/22 07:50:35;;;;;;;4.43;2.00;;;;;;;-145.50;100.00;65435.88;5045632;28;20441;-71
2023/09/22 07:53:02;;;;;;;4.10;2.03;;;;;;;-145.50;100.00;65435.88;5054859;28;20147;-71
2023/09/22 07:55:30;;;;;;;4.38;1.90;;;;;;;-145.50;100.00;65435.88;5040145;28;20475;-70
2023/09/22 07:57:56;;;;;;;3.80;2.00;;;;;;;-145.50;100.00;65435.88;5047417;28;20044;-71
2023/09/22 08:00:26;;;;;;;5.95;2.00;;;;;;;-145.50;100.00;65435.88;5045808;28;20299;-71
2023/09/22 08:02:53;;;;;;;7.18;2.08;;;;;;;-145.50;100.00;65435.88;5036786;28;20502;-71
2023/09/22 08:05:20;;;;;;;3.58;1.30;;;;;;;-145.50;100.00;65435.88;5048592;28;20049;-72
2023/09/22 08:07:51;;;;;;;3.58;1.40;;;;;;;-145.50;100.00;65435.88;5044790;28;20059;-71
2023/09/22 08:10:18;;;;;;;3.67;1.60;;;;;;;-145.50;100.00;65435.88;5056620;28;20543;-72
2023/09/22 08:12:45;;;;;;;3.53;1.83;;;;;;;-145.50;100.00;65435.88;5040327;28;20048;-71
2023/09/22 08:15:14;;;;;;;2.35;1.52;;;;;;;-145.50;100.00;65435.88;5050352;28;20080;-71
2023/09/22 08:17:46;;;;;;;5.22;1.50;;;;;;;-145.50;100.00;65435.88;5044674;28;20056;-71
2023/09/22 08:20:13;;;;;;;4.40;1.70;;;;;;;-145.50;100.00;65435.88;5042883;28;20063;-72
2023/09/22 08:22:42;;;;;;;4.03;1.80;;;;;;;-145.50;100.00;65435.88;5050695;28;20114;-71
2023/09/22 08:25:09;;;;;;;5.05;1.67;;;;;;;-145.50;100.00;65435.88;5042503;28;20048;-71
2023/09/22 08:27:37;;;;;;;4.13;1.23;;;;;;;-145.50;100.00;65435.88;5048349;28;20720;-70
2023/09/22 08:30:09;;;;;;;3.55;1.33;;;;;;;-145.50;100.00;65435.88;5048534;28;20067;-71
2023/09/22 08:32:39;;;;;;;3.60;1.40;;;;;;;-145.50;100.00;65435.88;5048095;28;20049;-71
2023/09/22 08:35:10;;;;;;;2.25;1.20;;;;;;;-145.50;100.00;65435.88;5049238;28;20041;-71
2023/09/22 08:37:40;;;;;;;4.38;1.63;;;;;;;-145.50;100.00;65435.88;5042314;28;20040;-71
2023/09/22 08:40:09;;;;;;;2.65;1.23;;;;;;;-145.50;100.00;65435.88;5042208;28;20144;-71
2023/09/22 08:42:37;;;;;;;4.28;1.20;;;;;;;-145.50;100.00;65435.88;5040496;28;20052;-71
2023/09/22 08:45:08;;;;;;;3.50;1.20;;;;;;;-145.50;100.00;65435.88;5044086;28;20049;-71
2023/09/22 08:47:42;;;;;;;4.13;1.35;;;;;;;-145.50;100.00;65435.88;5035568;28;20052;-71
2023/09/22 08:50:09;;;;;;;2.30;1.10;;;;;;;-145.50;100.00;65435.88;5051775;28;20056;-72
2023/09/22 08:52:38;;;;;;;2.53;0.90;;;;;;;-145.50;100.00;65435.88;5043444;28;20454;-71
2023/09/22 08:55:08;;;;;;;;;;;;;;;-145.50;100.00;65435.88;5038644;28;20102;-71
2023/09/22 08:57:35;;;;;;;4.45;1.30;;;;;;;-145.50;100.00;65435.88;5042051;28;19928;-72
2023/09/22 09:00:10;;;;;;;1.73;0.90;;;;;;;-145.50;100.00;65435.88;5036731;28;20056;-71
2023/09/22 09:02:38;;;;;;;2.88;1.00;;;;;;;-145.50;100.00;65435.88;5048854;28;20067;-72
2023/09/22 09:05:39;;;;;;;2.58;1.00;;;;;;;-145.50;100.00;65435.88;5039211;28;20132;-71
2023/09/22 09:08:17;;;;;;;3.58;1.00;;;;;;;-145.50;100.00;65435.88;5011116;28;20041;-72
2023/09/22 09:10:49;;;;;;;2.15;0.93;;;;;;;-145.50;100.00;65435.88;5044499;28;20052;-72
2023/09/22 09:13:18;;;;;;;0.95;0.60;;;;;;;-145.50;100.00;65435.88;5044587;28;20517;-73
2023/09/22 09:15:45;;;;;;;3.08;0.80;;;;;;;-145.50;100.00;65435.88;5050698;28;20049;-72
2023/09/22 09:18:19;;;;;;;2.37;0.73;;;;;;;-145.50;100.00;65435.88;5042347;28;20049;-72
2023/09/22 09:20:48;;;;;;;1.90;1.00;;;;;;;-145.50;100.00;65435.88;5047796;28;20324;-72
2023/09/22 09:23:22;;;;;;;3.38;0.98;;;;;;;-145.50;100.00;65435.88;5045570;28;20171;-72
2023/09/22 09:25:54;;;;;;;2.30;0.85;;;;;;;-145.50;100.00;65435.88;5046936;28;20110;-72
2023/09/22 09:28:23;;;;;;;3.30;0.93;;;;;;;-145.50;100.00;65435.88;5042304;28;20416;-73
2023/09/22 09:30:54;;;;;;;;;;;;;;;-145.50;100.00;65435.88;5052343;28;20140;-73
2023/09/22 09:33:23;;;;;;;3.38;0.80;;;;;;;-145.50;100.00;65435.88;5047091;28;19972;-73
2023/09/22 09:35:49;;;;;;;;;;;;;;;-145.50;100.00;65435.88;5035931;28;20053;-72
2023/09/22 09:38:20;;;;;;;2.28;0.68;;;;;;;-145.50;100.00;65435.88;5051223;28;19929;-71
2023/09/22 09:40:47;;;;;;;4.10;1.10;;;;;;;-145.50;100.00;65435.88;5040197;28;20052;-72
2023/09/22 09:43:14;;;;;;;3.58;0.90;;;;;;;-145.50;100.00;65435.88;5044597;28;20161;-72
2023/09/22 09:45:46;;;;;;;2.97;0.80;;;;;;;-145.50;100.00;65435.88;5042282;28;20049;-72
2023/09/22 09:48:16;;;;;;;3.08;0.90;;;;;;;-145.50;100.00;65435.88;5042593;28;20906;-72
2023/09/22 09:50:53;;;;;;;2.97;1.00;;;;;;;-145.50;100.00;65435.88;5048711;28;20044;-73
2023/09/22 09:53:39;;;;;;;6.22;0.77;;;;;;;-145.50;100.00;65435.88;5047572;28;20056;-73
2023/09/22 09:56:06;;;;;;;3.78;0.68;;;;;;;-145.50;100.00;65435.88;5049435;28;20056;-72
2023/09/22 09:58:35;;;;;;;4.90;1.60;;;;;;;-145.50;100.00;65435.88;5040401;28;20048;-72
2023/09/22 10:01:05;;;;;;;2.33;0.65;;;;;;;-145.50;100.00;65435.88;5041497;28;20578;-72
2023/09/22 10:03:35;;;;;;;2.78;0.90;;;;;;;-145.50;100.00;65435.88;5035232;28;20549;-72
2023/09/22 10:06:10;;;;;;;1.20;0.70;;;;;;;-145.50;100.00;65435.88;5046881;28;20049;-72
2023/09/22 10:08:40;;;;;;;2.10;0.70;;;;;;;-145.50;100.00;65435.88;5042394;28;20068;-72
2023/09/22 10:11:11;;;;;;;2.78;0.60;;;;;;;-145.50;100.00;65435.88;5045836;28;20060;-73
2023/09/22 10:13:38;;;;;;;1.27;0.80;;;;;;;-145.50;100.00;65435.88;5049376;28;20048;-72
2023/09/22 10:16:06;;;;;;;1.15;0.80;;;;;;;-145.50;100.00;65435.88;5036995;28;20784;-72
2023/09/22 10:18:47;;;;;;;2.55;0.77;;;;;;;-145.50;100.00;65435.88;5049531;28;20119;-72
2023/09/22 10:21:32;;;;;;;1.80;0.63;;;;;;;-145.50;100.00;65435.88;5045680;28;20868;-71
2023/09/22 10:24:17;;;;;;;1.58;0.50;;;;;;;-145.50;100.00;65435.88;5048203;28;20183;-71
2023/09/22 10:27:08;;;;;;;3.22;0.70;;;;;;;-145.50;100.00;65435.88;5044801;28;20063;-72
2023/09/22 10:29:37;;;;;;;2.80;0.90;;;;;;;-145.50;100.00;65435.88;5033397;28;20546;-72
2023/09/22 10:32:21;;;;;;;2.20;0.80;;;;;;;-145.50;100.00;65435.88;5043381;28;20417;-71
2023/09/22 10:35:05;;;;;;;1.25;0.60;;;;;;;-145.50;100.00;65435.88;5052870;28;20048;-72
2023/09/22 10:37:36;;;;;;;1.23;0.60;;;;;;;-145.50;100.00;65435.88;5041558;28;20057;-73
2023/09/22 10:40:25;;;;;;;2.65;0.70;;;;;;;-145.50;100.00;65435.88;5051571;28;20051;-72
2023/09/22 10:42:52;;;;;;;3.83;1.00;;;;;;;-145.50;100.00;65435.88;5049068;28;20064;-73
2023/09/22 10:45:28;;;;;;;4.68;0.82;;;;;;;-145.50;100.00;65435.88;5033183;28;20045;-72
2023/09/22 10:47:59;;;;;;;1.80;0.75;;;;;;;-145.50;100.00;65435.88;5048699;28;20093;-74
2023/09/22 10:50:31;;;;;;;3.45;0.63;;;;;;;-145.50;100.00;65435.88;5046100;28;20729;-72
2023/09/22 10:53:05;;;;;;;1.63;0.70;;;;;;;-145.50;100.00;65435.88;5050083;28;20049;-73
2023/09/22 10:55:39;;;;;;;2.83;0.70;;;;;;;-145.50;100.00;65435.88;5045454;28;20045;-72
2023/09/22 10:58:09;;;;;;;3.92;0.90;;;;;;;-145.50;100.00;65435.88;5045825;28;20102;-72
2023/09/22 11:00:44;;;;;;;3.58;0.90;;;;;;;-145.50;100.00;65435.88;5044752;28;20147;-72
2023/09/22 11:03:14;;;;;;;2.40;0.90;;;;;;;-145.50;100.00;65435.88;5047186;28;20504;-73
2023/09/22 11:05:43;;;;;;;3.10;0.90;;;;;;;-145.50;100.00;65435.88;5045822;28;20352;-71
2023/09/22 11:08:14;;;;;;;1.05;0.60;;;;;;;-145.50;100.00;65435.88;5035869;28;20056;-72
2023/09/22 11:10:43;;;;;;;2.28;0.80;;;;;;;-145.50;100.00;65435.88;5048291;28;20409;-72